createdAt,value
2022-12-11T00:00:16.923Z,71.6
2022-12-11T00:01:32.836Z,71.6
2022-12-11T00:02:49.302Z,71.6
2022-12-11T00:04:05.207Z,71.6
2022-12-11T00:05:21.690Z,71.6
2022-12-11T00:06:36.887Z,71.6
2022-12-11T00:07:53.071Z,71.6
2022-12-11T00:09:09.259Z,71.7
2022-12-11T00:10:25.461Z,71.6
2022-12-11T00:11:41.353Z,71.5
2022-12-11T00:12:57.553Z,71.6
2022-12-11T00:14:13.731Z,71.6
2022-12-11T00:15:30.224Z,71.6
2022-12-11T00:16:46.399Z,71.6
2022-12-11T00:18:02.596Z,71.7
2022-12-11T00:19:18.495Z,71.7
2022-12-11T00:20:34.974Z,71.6
2022-12-11T00:21:50.874Z,71.6
2022-12-11T00:23:06.079Z,71.6
2022-12-11T00:24:22.563Z,71.6
2022-12-11T00:25:38.754Z,71.5
2022-12-11T00:26:54.632Z,71.5
2022-12-11T00:28:11.134Z,71.5
2022-12-11T00:29:27.323Z,71.5
2022-12-11T00:30:43.497Z,71.5
2022-12-11T00:31:59.684Z,71.5
2022-12-11T00:33:15.586Z,71.5
2022-12-11T00:34:31.000Z,71.4
2022-12-11T00:35:47.959Z,71.5
2022-12-11T00:37:04.444Z,71.6
2022-12-11T00:38:20.639Z,71.5
2022-12-11T00:39:36.650Z,71.6
2022-12-11T00:40:53.133Z,71.6
2022-12-11T00:42:09.325Z,71.6
2022-12-11T00:43:25.519Z,71.6
2022-12-11T00:44:41.718Z,71.6
2022-12-11T00:45:57.892Z,71.6
2022-12-11T00:47:13.792Z,71.6
2022-12-11T00:48:29.971Z,71.6
2022-12-11T00:49:46.167Z,71.5
2022-12-11T00:51:02.656Z,71.6
2022-12-11T00:52:18.542Z,71.6
2022-12-11T00:53:34.736Z,71.6
2022-12-11T00:54:50.914Z,71.6
2022-12-11T00:56:06.431Z,71.7
2022-12-11T00:57:22.318Z,71.3
2022-12-11T00:58:38.814Z,71
2022-12-11T00:59:54.689Z,71
2022-12-11T01:01:10.876Z,71
2022-12-11T01:02:27.067Z,71.2
2022-12-11T01:03:43.553Z,71.2
2022-12-11T01:04:59.457Z,71.3
2022-12-11T01:06:15.946Z,71.3
2022-12-11T01:07:32.142Z,71.3
2022-12-11T01:08:48.325Z,71.3
2022-12-11T01:10:04.509Z,71.4
2022-12-11T01:11:20.703Z,71.3
2022-12-11T01:12:35.595Z,71.3
2022-12-11T01:13:51.780Z,71.3
2022-12-11T01:15:08.278Z,71.3
2022-12-11T01:16:24.158Z,71.3
2022-12-11T01:17:40.659Z,71.3
2022-12-11T01:18:56.858Z,71.2
2022-12-11T01:20:12.729Z,71.3
2022-12-11T01:21:29.235Z,71.4
2022-12-11T01:22:45.415Z,71.3
2022-12-11T01:24:01.612Z,71.3
2022-12-11T01:25:17.807Z,71.3
2022-12-11T01:26:33.682Z,71.2
2022-12-11T01:27:49.866Z,71.3
2022-12-11T01:29:05.379Z,71.3
2022-12-11T01:30:21.562Z,71.3
2022-12-11T01:31:37.755Z,71.3
2022-12-11T01:32:53.943Z,71.4
2022-12-11T01:34:10.141Z,71.3
2022-12-11T01:35:26.023Z,71.4
2022-12-11T01:36:42.524Z,71.4
2022-12-11T01:37:58.713Z,71.4
2022-12-11T01:39:14.583Z,71.3
2022-12-11T01:40:31.087Z,71.3
2022-12-11T01:41:47.270Z,71.4
2022-12-11T01:43:03.156Z,71.4
2022-12-11T01:44:19.641Z,71.4
2022-12-11T01:45:34.852Z,71.4
2022-12-11T01:46:51.036Z,71.3
2022-12-11T01:48:07.229Z,71.3
2022-12-11T01:49:23.427Z,71.4
2022-12-11T01:50:39.292Z,71.4
2022-12-11T01:51:55.486Z,71.4
2022-12-11T01:53:11.998Z,71.4
2022-12-11T01:54:28.187Z,71.4
2022-12-11T01:55:44.046Z,71.4
2022-12-11T01:57:00.556Z,71.2
2022-12-11T01:58:16.758Z,71.2
2022-12-11T01:59:32.944Z,71.2
2022-12-11T02:00:49.134Z,71.1
2022-12-11T02:02:04.343Z,70.8
2022-12-11T02:03:20.518Z,70.8
2022-12-11T02:04:36.390Z,70.7
2022-12-11T02:05:52.589Z,70.6
2022-12-11T02:07:08.772Z,70.6
2022-12-11T02:08:25.282Z,70.6
2022-12-11T02:09:41.460Z,70.8
2022-12-11T02:10:57.342Z,70.7
2022-12-11T02:12:13.843Z,70.8
2022-12-11T02:13:29.714Z,70.8
2022-12-11T02:14:46.225Z,70.9
2022-12-11T02:16:02.408Z,70.9
2022-12-11T02:17:18.600Z,70.8
2022-12-11T02:18:33.496Z,70.9
2022-12-11T02:19:50.000Z,70.8
2022-12-11T02:21:05.862Z,70.9
2022-12-11T02:22:22.379Z,70.9
2022-12-11T02:23:38.565Z,70.9
2022-12-11T02:24:54.745Z,70.8
2022-12-11T02:26:10.954Z,70.9
2022-12-11T02:27:26.816Z,70.8
2022-12-11T02:28:42.996Z,70.8
2022-12-11T02:29:59.519Z,70.8
2022-12-11T02:31:15.710Z,70.8
2022-12-11T02:32:31.882Z,70.8
2022-12-11T02:33:48.086Z,70.9
2022-12-11T02:35:03.285Z,71
2022-12-11T02:36:19.466Z,71
2022-12-11T02:37:35.654Z,71
2022-12-11T02:38:51.856Z,71
2022-12-11T02:40:08.049Z,70.8
2022-12-11T02:41:24.241Z,70.8
2022-12-11T02:42:40.100Z,71
2022-12-11T02:43:56.285Z,71
2022-12-11T02:45:12.792Z,71
2022-12-11T02:46:28.664Z,71
2022-12-11T02:47:45.169Z,71
2022-12-11T02:49:01.369Z,70.8
2022-12-11T02:50:17.545Z,71
2022-12-11T02:51:32.432Z,71
2022-12-11T02:52:48.940Z,71
2022-12-11T02:54:05.130Z,71
2022-12-11T02:55:21.320Z,71
2022-12-11T02:56:37.510Z,71
2022-12-11T02:57:53.697Z,71
2022-12-11T02:59:09.905Z,71.2
2022-12-11T03:00:26.075Z,71
2022-12-11T03:01:42.269Z,71
2022-12-11T03:02:58.459Z,71
2022-12-11T03:04:14.645Z,71
2022-12-11T03:05:30.850Z,71.2
2022-12-11T03:06:46.695Z,71.2
2022-12-11T03:08:01.895Z,71.2
2022-12-11T03:09:18.421Z,71.2
2022-12-11T03:10:34.611Z,71.2
2022-12-11T03:11:50.463Z,71
2022-12-11T03:13:06.986Z,71
2022-12-11T03:14:22.845Z,71
2022-12-11T03:15:39.038Z,71
2022-12-11T03:16:55.217Z,71
2022-12-11T03:18:11.752Z,71
2022-12-11T03:19:27.933Z,71
2022-12-11T03:20:44.123Z,71
2022-12-11T03:21:59.980Z,71.2
2022-12-11T03:23:16.512Z,71
2022-12-11T03:24:31.707Z,71
2022-12-11T03:25:47.898Z,71
2022-12-11T03:27:03.759Z,71
2022-12-11T03:28:20.277Z,71
2022-12-11T03:29:36.135Z,71
2022-12-11T03:30:52.656Z,71
2022-12-11T03:32:08.842Z,71
2022-12-11T03:33:23.727Z,71
2022-12-11T03:34:40.239Z,71
2022-12-11T03:35:56.442Z,71
2022-12-11T03:37:12.291Z,71
2022-12-11T03:38:28.815Z,71.2
2022-12-11T03:39:44.999Z,71.2
2022-12-11T03:41:01.198Z,71
2022-12-11T03:42:17.384Z,71.2
2022-12-11T03:43:33.560Z,71.2
2022-12-11T03:44:49.753Z,71.2
2022-12-11T03:46:05.616Z,71
2022-12-11T03:47:22.144Z,71.2
2022-12-11T03:48:38.324Z,71.2
2022-12-11T03:49:53.540Z,71.2
2022-12-11T03:51:09.731Z,71
2022-12-11T03:52:25.906Z,71.2
2022-12-11T03:53:41.750Z,71.2
2022-12-11T03:54:58.280Z,71.2
2022-12-11T03:56:14.468Z,71.2
2022-12-11T03:57:30.325Z,71
2022-12-11T03:58:46.861Z,71.2
2022-12-11T04:00:02.698Z,71.3
2022-12-11T04:01:19.228Z,71.2
2022-12-11T04:02:35.422Z,71
2022-12-11T04:03:51.615Z,71.3
2022-12-11T04:05:07.455Z,71.2
2022-12-11T04:06:23.004Z,71.3
2022-12-11T04:07:38.859Z,71.3
2022-12-11T04:08:55.387Z,71.3
2022-12-11T04:10:11.224Z,71.2
2022-12-11T04:11:27.412Z,71.3
2022-12-11T04:12:43.957Z,71.3
2022-12-11T04:14:00.138Z,71.3
2022-12-11T04:15:15.981Z,71.2
2022-12-11T04:16:32.523Z,71.3
2022-12-11T04:17:48.707Z,71.2
2022-12-11T04:19:04.903Z,71.2
2022-12-11T04:20:21.090Z,71.2
2022-12-11T04:21:37.281Z,71
2022-12-11T04:22:52.129Z,71.3
2022-12-11T04:24:08.675Z,71.2
2022-12-11T04:25:24.867Z,71.2
2022-12-11T04:26:41.043Z,71.2
2022-12-11T04:27:56.880Z,71
2022-12-11T04:29:13.435Z,71.2
2022-12-11T04:30:29.276Z,71
2022-12-11T04:31:45.802Z,71.2
2022-12-11T04:33:01.999Z,71.2
2022-12-11T04:34:18.190Z,71
2022-12-11T04:35:34.013Z,71.2
2022-12-11T04:36:50.571Z,71.2
2022-12-11T04:38:06.404Z,71.3
2022-12-11T04:39:22.933Z,71.2
2022-12-11T04:40:38.142Z,71.2
2022-12-11T04:41:54.343Z,71.2
2022-12-11T04:43:10.524Z,71.3
2022-12-11T04:44:26.716Z,71
2022-12-11T04:45:42.545Z,71.2
2022-12-11T04:46:59.091Z,71
2022-12-11T04:48:14.925Z,71.3
2022-12-11T04:49:31.105Z,71.3
2022-12-11T04:50:47.666Z,71.2
2022-12-11T04:52:03.839Z,71
2022-12-11T04:53:20.038Z,71.3
2022-12-11T04:54:36.224Z,71
2022-12-11T04:55:52.416Z,71.2
2022-12-11T04:57:07.620Z,71.2
2022-12-11T04:58:23.817Z,71.2
2022-12-11T04:59:40.009Z,71.3
2022-12-11T05:00:55.839Z,71.2
2022-12-11T05:02:12.011Z,71.3
2022-12-11T05:03:28.215Z,71.3
2022-12-11T05:04:44.764Z,71.3
2022-12-11T05:06:00.939Z,71.3
2022-12-11T05:07:17.140Z,71.3
2022-12-11T05:08:32.972Z,71.4
2022-12-11T05:09:49.508Z,71.5
2022-12-11T05:11:05.702Z,71.4
2022-12-11T05:12:21.900Z,71.3
2022-12-11T05:13:36.727Z,71.4
2022-12-11T05:14:52.916Z,71.4
2022-12-11T05:16:09.110Z,71.3
2022-12-11T05:17:25.669Z,71.2
2022-12-11T05:18:41.502Z,71.2
2022-12-11T05:19:58.051Z,71.2
2022-12-11T05:21:14.223Z,71.3
2022-12-11T05:22:30.424Z,71.2
2022-12-11T05:23:46.609Z,71.2
2022-12-11T05:25:02.000Z,71.2
2022-12-11T05:26:18.993Z,71.3
2022-12-11T05:27:34.820Z,71.2
2022-12-11T05:28:51.002Z,71.2
2022-12-11T05:30:06.574Z,71.2
2022-12-11T05:31:22.389Z,71.2
2022-12-11T05:32:38.946Z,71.2
2022-12-11T05:33:54.785Z,71.2
2022-12-11T05:35:11.338Z,71.2
2022-12-11T05:36:27.520Z,71.2
2022-12-11T05:37:43.715Z,71.2
2022-12-11T05:38:59.528Z,71.2
2022-12-11T05:40:16.079Z,71.2
2022-12-11T05:41:32.281Z,71.2
2022-12-11T05:42:48.456Z,71.3
2022-12-11T05:44:04.290Z,71.2
2022-12-11T05:45:20.850Z,71.3
2022-12-11T05:46:36.659Z,71.3
2022-12-11T05:47:52.238Z,71.3
2022-12-11T05:49:08.425Z,71.2
2022-12-11T05:50:24.619Z,71.2
2022-12-11T05:51:40.815Z,71.3
2022-12-11T05:52:56.985Z,71.2
2022-12-11T05:54:12.811Z,71.4
2022-12-11T05:55:29.367Z,71.3
2022-12-11T05:56:45.188Z,71.3
2022-12-11T05:58:01.767Z,71.3
2022-12-11T05:59:17.946Z,71.3
2022-12-11T06:00:34.137Z,71.2
2022-12-11T06:01:49.956Z,71.3
2022-12-11T06:03:06.505Z,71.3
2022-12-11T06:04:21.714Z,71.4
2022-12-11T06:05:37.909Z,71.2
2022-12-11T06:06:53.728Z,71.3
2022-12-11T06:08:10.286Z,71.4
2022-12-11T06:09:26.089Z,71.3
2022-12-11T06:10:42.649Z,71.3
2022-12-11T06:11:58.472Z,71.2
2022-12-11T06:13:15.036Z,71.2
2022-12-11T06:14:31.223Z,71.4
2022-12-11T06:15:47.413Z,71.3
2022-12-11T06:17:03.233Z,71.2
2022-12-11T06:18:19.410Z,71.2
2022-12-11T06:19:35.992Z,71.2
2022-12-11T06:20:51.185Z,71.2
2022-12-11T06:22:07.370Z,71.2
2022-12-11T06:23:23.556Z,71
2022-12-11T06:24:39.364Z,70.8
2022-12-11T06:25:55.935Z,71.2
2022-12-11T06:27:11.751Z,71.3
2022-12-11T06:28:28.315Z,71.2
2022-12-11T06:29:44.504Z,71.2
2022-12-11T06:31:00.314Z,71.2
2022-12-11T06:32:16.488Z,71.2
2022-12-11T06:33:33.060Z,71.2
2022-12-11T06:34:49.247Z,71.2
2022-12-11T06:36:05.430Z,71.2
2022-12-11T06:37:20.646Z,71.3
2022-12-11T06:38:36.817Z,71.2
2022-12-11T06:39:52.627Z,71.2
2022-12-11T06:41:09.207Z,71.4
2022-12-11T06:42:25.379Z,71.4
2022-12-11T06:43:41.575Z,71.3
2022-12-11T06:44:57.391Z,71.5
2022-12-11T06:46:13.959Z,71.3
2022-12-11T06:47:30.153Z,71.4
2022-12-11T06:48:46.325Z,71.4
2022-12-11T06:50:02.512Z,71.4
2022-12-11T06:51:18.692Z,71.5
2022-12-11T06:52:34.887Z,71.5
2022-12-11T06:53:51.070Z,71.4
2022-12-11T06:55:05.889Z,71.4
2022-12-11T06:56:22.080Z,71.4
2022-12-11T06:57:38.657Z,71.4
2022-12-11T06:58:54.457Z,71.5
2022-12-11T07:00:11.030Z,71.5
2022-12-11T07:01:26.830Z,71.4
2022-12-11T07:02:43.016Z,71.6
2022-12-11T07:03:59.594Z,71.6
2022-12-11T07:05:15.789Z,71.4
2022-12-11T07:06:31.958Z,71.5
2022-12-11T07:07:48.155Z,71.5
2022-12-11T07:09:03.961Z,71.4
2022-12-11T07:10:20.151Z,71.5
2022-12-11T07:11:35.735Z,71.4
2022-12-11T07:12:51.542Z,71.5
2022-12-11T07:14:08.112Z,71.5
2022-12-11T07:15:24.291Z,71.5
2022-12-11T07:16:40.475Z,71.4
2022-12-11T07:17:56.295Z,71.3
2022-12-11T07:19:12.866Z,71.3
2022-12-11T07:20:29.047Z,71.3
2022-12-11T07:21:45.234Z,71.4
2022-12-11T07:23:01.028Z,71.3
2022-12-11T07:24:17.614Z,71.3
2022-12-11T07:25:33.406Z,71.4
2022-12-11T07:26:49.986Z,71.4
2022-12-11T07:28:04.805Z,71.3
2022-12-11T07:29:21.379Z,71.3
2022-12-11T07:30:37.568Z,71.4
2022-12-11T07:31:53.749Z,71.4
2022-12-11T07:33:09.547Z,71.4
2022-12-11T07:34:25.730Z,71.4
2022-12-11T07:35:42.317Z,71.4
2022-12-11T07:36:58.504Z,71.4
2022-12-11T07:38:14.695Z,71.4
2022-12-11T07:39:30.876Z,71.4
2022-12-11T07:40:46.673Z,71.5
2022-12-11T07:42:03.258Z,71.4
2022-12-11T07:43:19.434Z,71.4
2022-12-11T07:44:34.633Z,71.4
2022-12-11T07:45:50.437Z,71.4
2022-12-11T07:47:06.622Z,71.4
2022-12-11T07:48:21.822Z,71.4
2022-12-11T07:49:38.419Z,71.4
2022-12-11T07:50:54.602Z,71.5
2022-12-11T07:52:10.780Z,71.4
2022-12-11T07:53:26.569Z,71.4
2022-12-11T07:54:43.162Z,71.4
2022-12-11T07:55:58.962Z,71.5
2022-12-11T07:57:15.529Z,71.5
2022-12-11T07:58:31.731Z,71.5
2022-12-11T07:59:47.907Z,71.5
2022-12-11T08:01:04.095Z,71.3
2022-12-11T08:02:19.884Z,71
2022-12-11T08:03:36.077Z,71.3
2022-12-11T08:04:51.666Z,71.4
2022-12-11T08:06:07.861Z,71.3
2022-12-11T08:07:24.042Z,71.4
2022-12-11T08:08:39.843Z,71.5
2022-12-11T08:09:56.421Z,71.4
2022-12-11T08:11:12.209Z,71.3
2022-12-11T08:12:28.798Z,71.3
2022-12-11T08:13:44.582Z,71.3
2022-12-11T08:15:01.168Z,71.4
2022-12-11T08:16:17.369Z,71.4
2022-12-11T08:17:33.541Z,71.2
2022-12-11T08:18:49.333Z,71.3
2022-12-11T08:20:05.526Z,71.4
2022-12-11T08:21:21.132Z,71.4
2022-12-11T08:22:36.921Z,71.3
2022-12-11T08:23:53.497Z,71.3
2022-12-11T08:25:09.285Z,71.4
2022-12-11T08:26:25.474Z,71.4
2022-12-11T08:27:41.774Z,71.2
2022-12-11T08:28:57.963Z,71.4
2022-12-11T08:30:14.145Z,71.2
2022-12-11T08:31:30.228Z,71.2
2022-12-11T08:32:46.511Z,71.2
2022-12-11T08:34:02.598Z,71.4
2022-12-11T08:35:18.890Z,71.3
2022-12-11T08:36:35.080Z,71.2
2022-12-11T08:37:50.176Z,71.3
2022-12-11T08:39:06.472Z,71.3
2022-12-11T08:40:22.669Z,71.3
2022-12-11T08:41:38.743Z,71.3
2022-12-11T08:42:55.040Z,71.2
2022-12-11T08:44:11.227Z,71.2
2022-12-11T08:45:27.418Z,71
2022-12-11T08:46:43.484Z,71.3
2022-12-11T08:47:59.782Z,71.3
2022-12-11T08:49:15.852Z,71.3
2022-12-11T08:50:32.163Z,71.2
2022-12-11T08:51:48.233Z,71.2
2022-12-11T08:53:04.543Z,71
2022-12-11T08:54:19.745Z,71
2022-12-11T08:55:35.924Z,71
2022-12-11T08:56:51.996Z,70.8
2022-12-11T08:58:08.307Z,71
2022-12-11T08:59:24.367Z,71
2022-12-11T09:00:40.552Z,71
2022-12-11T09:01:56.752Z,71
2022-12-11T09:03:13.051Z,71
2022-12-11T09:04:29.123Z,71
2022-12-11T09:05:45.426Z,71
2022-12-11T09:07:01.510Z,71
2022-12-11T09:08:17.809Z,71
2022-12-11T09:09:33.995Z,71
2022-12-11T09:10:49.199Z,71
2022-12-11T09:12:05.260Z,70.8
2022-12-11T09:13:21.449Z,70.8
2022-12-11T09:14:37.750Z,71
2022-12-11T09:15:53.830Z,71
2022-12-11T09:17:10.134Z,70.8
2022-12-11T09:18:26.321Z,71
2022-12-11T09:19:42.384Z,71
2022-12-11T09:20:58.688Z,70.8
2022-12-11T09:22:14.885Z,71
2022-12-11T09:23:31.066Z,71
2022-12-11T09:24:47.261Z,71
2022-12-11T09:26:03.314Z,71
2022-12-11T09:27:18.517Z,71
2022-12-11T09:28:34.709Z,71
2022-12-11T09:29:51.022Z,71
2022-12-11T09:31:07.213Z,71
2022-12-11T09:32:23.281Z,70.8
2022-12-11T09:33:39.586Z,71
2022-12-11T09:34:55.640Z,71
2022-12-11T09:36:11.833Z,70.8
2022-12-11T09:37:28.153Z,70.8
2022-12-11T09:38:44.218Z,70.7
2022-12-11T09:40:00.523Z,70.8
2022-12-11T09:41:16.575Z,70.7
2022-12-11T09:42:32.887Z,70.7
2022-12-11T09:43:48.099Z,70.8
2022-12-11T09:45:04.287Z,70.7
2022-12-11T09:46:20.482Z,70.8
2022-12-11T09:47:36.669Z,70.5
2022-12-11T09:48:52.844Z,70.8
2022-12-11T09:50:08.904Z,71
2022-12-11T09:51:25.220Z,70.8
2022-12-11T09:52:41.405Z,70.8
2022-12-11T09:53:57.481Z,70.7
2022-12-11T09:55:13.781Z,70.7
2022-12-11T09:56:29.979Z,70.8
2022-12-11T09:57:46.042Z,70.7
2022-12-11T09:59:02.216Z,70.7
2022-12-11T10:00:18.536Z,70.7
2022-12-11T10:01:33.743Z,70.8
2022-12-11T10:02:49.792Z,70.7
2022-12-11T10:04:06.104Z,70.7
2022-12-11T10:05:22.168Z,70.5
2022-12-11T10:06:38.488Z,70.7
2022-12-11T10:07:54.661Z,70.7
2022-12-11T10:09:10.866Z,70.5
2022-12-11T10:10:27.048Z,70.7
2022-12-11T10:11:43.231Z,70.7
2022-12-11T10:12:59.000Z,70.7
2022-12-11T10:14:15.616Z,70.5
2022-12-11T10:15:31.796Z,70.7
2022-12-11T10:16:47.854Z,70.5
2022-12-11T10:18:03.176Z,70.4
2022-12-11T10:19:19.247Z,70.7
2022-12-11T10:20:35.428Z,70.5
2022-12-11T10:21:51.752Z,70.5
2022-12-11T10:23:07.933Z,70.5
2022-12-11T10:24:24.123Z,70.5
2022-12-11T10:25:40.319Z,70.5
2022-12-11T10:26:56.504Z,70.5
2022-12-11T10:28:12.559Z,70.5
2022-12-11T10:29:28.877Z,70.5
2022-12-11T10:30:44.942Z,70.5
2022-12-11T10:32:01.125Z,70.5
2022-12-11T10:33:17.427Z,70.7
2022-12-11T10:34:32.636Z,70.5
2022-12-11T10:35:48.824Z,70.7
2022-12-11T10:37:05.021Z,70.7
2022-12-11T10:38:21.204Z,70.7
2022-12-11T10:39:37.388Z,70.7
2022-12-11T10:40:53.449Z,70.8
2022-12-11T10:42:09.753Z,70.8
2022-12-11T10:43:25.959Z,70.8
2022-12-11T10:44:42.001Z,70.8
2022-12-11T10:45:58.333Z,70.8
2022-12-11T10:47:14.522Z,70.7
2022-12-11T10:48:30.694Z,70.8
2022-12-11T10:49:46.882Z,70.8
2022-12-11T10:51:01.959Z,70.8
2022-12-11T10:52:18.282Z,70.8
2022-12-11T10:53:34.477Z,70.7
2022-12-11T10:54:50.655Z,70.7
2022-12-11T10:56:06.843Z,70.7
2022-12-11T10:57:22.897Z,70.5
2022-12-11T10:58:39.081Z,70.7
2022-12-11T10:59:55.402Z,70.8
2022-12-11T11:01:11.584Z,70.7
2022-12-11T11:02:27.786Z,70.5
2022-12-11T11:03:43.841Z,70.7
2022-12-11T11:05:00.162Z,70.7
2022-12-11T11:06:16.338Z,70.7
2022-12-11T11:07:31.410Z,70.7
2022-12-11T11:08:47.732Z,70.7
2022-12-11T11:10:03.779Z,70.5
2022-12-11T11:11:20.112Z,70.7
2022-12-11T11:12:36.155Z,70.7
2022-12-11T11:13:52.483Z,70.5
2022-12-11T11:15:08.660Z,70.7
2022-12-11T11:16:24.848Z,70.5
2022-12-11T11:17:41.034Z,70.7
2022-12-11T11:18:57.100Z,70.5
2022-12-11T11:20:13.414Z,70.7
2022-12-11T11:21:29.471Z,70.5
2022-12-11T11:22:45.660Z,70.5
2022-12-11T11:24:01.005Z,70.4
2022-12-11T11:25:17.193Z,70.7
2022-12-11T11:26:33.365Z,70.5
2022-12-11T11:27:49.562Z,70.4
2022-12-11T11:29:05.608Z,70.4
2022-12-11T11:30:21.943Z,70.4
2022-12-11T11:31:38.119Z,70.3
2022-12-11T11:32:54.308Z,70.3
2022-12-11T11:34:10.500Z,70.4
2022-12-11T11:35:26.692Z,70.2
2022-12-11T11:36:42.741Z,70.5
2022-12-11T11:37:59.060Z,70.5
2022-12-11T11:39:15.108Z,70.4
2022-12-11T11:40:30.444Z,70.5
2022-12-11T11:41:46.642Z,70.5
2022-12-11T11:43:02.826Z,70.4
2022-12-11T11:44:18.866Z,70.5
2022-12-11T11:45:35.197Z,70.3
2022-12-11T11:46:51.393Z,70.4
2022-12-11T11:48:07.424Z,70.4
2022-12-11T11:49:23.773Z,70.7
2022-12-11T11:50:39.946Z,70.5
2022-12-11T11:51:56.137Z,70.5
2022-12-11T11:53:12.317Z,70.3
2022-12-11T11:54:28.508Z,70.5
2022-12-11T11:55:44.706Z,70.4
2022-12-11T11:56:59.749Z,70.3
2022-12-11T11:58:16.091Z,70.3
2022-12-11T11:59:32.141Z,70.2
2022-12-11T12:00:48.314Z,70.2
2022-12-11T12:02:04.660Z,70.2
2022-12-11T12:03:19.859Z,70.2
2022-12-11T12:04:35.902Z,70.2
2022-12-11T12:05:52.238Z,70.3
2022-12-11T12:07:08.283Z,70.1
2022-12-11T12:08:24.617Z,70
2022-12-11T12:09:40.809Z,70.1
2022-12-11T12:10:56.995Z,69.9
2022-12-11T12:12:13.024Z,70.1
2022-12-11T12:13:29.203Z,70.1
2022-12-11T12:14:45.554Z,70.2
2022-12-11T12:16:01.581Z,70.1
2022-12-11T12:17:17.919Z,70.1
2022-12-11T12:18:34.107Z,70
2022-12-11T12:19:49.308Z,70
2022-12-11T12:21:05.511Z,70.1
2022-12-11T12:22:21.686Z,69.9
2022-12-11T12:23:37.874Z,70.1
2022-12-11T12:24:54.058Z,70
2022-12-11T12:26:10.255Z,69.8
2022-12-11T12:27:26.433Z,69.9
2022-12-11T12:28:42.619Z,69.9
2022-12-11T12:29:58.655Z,70
2022-12-11T12:31:14.997Z,70
2022-12-11T12:32:31.184Z,69.9
2022-12-11T12:33:47.373Z,70
2022-12-11T12:35:03.572Z,70
2022-12-11T12:36:18.761Z,69.9
2022-12-11T12:37:34.796Z,69.9
2022-12-11T12:38:50.987Z,70.1
2022-12-11T12:40:07.342Z,69.9
2022-12-11T12:41:23.515Z,69.9
2022-12-11T12:42:39.550Z,70
2022-12-11T12:43:55.903Z,70
2022-12-11T12:45:12.088Z,70.1
2022-12-11T12:46:28.262Z,70
2022-12-11T12:47:44.451Z,70.1
2022-12-11T12:49:00.643Z,70
2022-12-11T12:50:16.000Z,70
2022-12-11T12:51:32.861Z,70.1
2022-12-11T12:52:48.054Z,70.1
2022-12-11T12:54:04.407Z,70.1
2022-12-11T12:55:20.436Z,70.1
2022-12-11T12:56:36.791Z,70.1
2022-12-11T12:57:52.977Z,70
2022-12-11T12:59:09.169Z,70.1
2022-12-11T13:00:25.185Z,70.1
2022-12-11T13:01:41.526Z,70.1
2022-12-11T13:02:57.720Z,70.1
2022-12-11T13:04:13.918Z,70.2
2022-12-11T13:05:30.103Z,70.2
2022-12-11T13:06:46.281Z,70.3
2022-12-11T13:08:02.479Z,70.1
2022-12-11T13:09:17.681Z,70.2
2022-12-11T13:10:33.858Z,70.1
2022-12-11T13:11:50.043Z,70.2
2022-12-11T13:13:06.071Z,70.2
2022-12-11T13:14:22.259Z,70.2
2022-12-11T13:15:38.460Z,70.2
2022-12-11T13:16:54.646Z,70.2
2022-12-11T13:18:10.994Z,70.2
2022-12-11T13:19:27.168Z,70.2
2022-12-11T13:20:43.197Z,70.2
2022-12-11T13:21:59.550Z,70.3
2022-12-11T13:23:15.582Z,70.2
2022-12-11T13:24:31.921Z,70.2
2022-12-11T13:25:46.959Z,70.3
2022-12-11T13:27:03.320Z,70.3
2022-12-11T13:28:19.332Z,70.3
2022-12-11T13:29:35.522Z,70.3
2022-12-11T13:30:51.723Z,70.3
2022-12-11T13:32:07.907Z,70.3
2022-12-11T13:33:24.250Z,70.4
2022-12-11T13:34:40.449Z,70.3
2022-12-11T13:35:56.620Z,70.2
2022-12-11T13:37:12.813Z,70.1
2022-12-11T13:38:28.843Z,70.2
2022-12-11T13:39:45.189Z,70.1
2022-12-11T13:41:01.368Z,70.2
2022-12-11T13:42:16.413Z,70.1
2022-12-11T13:43:32.774Z,70.3
2022-12-11T13:44:48.958Z,70.2
2022-12-11T13:46:04.971Z,70
2022-12-11T13:47:21.330Z,70.2
2022-12-11T13:48:37.516Z,70.2
2022-12-11T13:49:53.700Z,70.3
2022-12-11T13:51:09.715Z,70.2
2022-12-11T13:52:26.078Z,70.2
2022-12-11T13:53:42.096Z,70.2
2022-12-11T13:54:58.451Z,70.2
2022-12-11T13:56:14.638Z,70.2
2022-12-11T13:57:30.652Z,70.2
2022-12-11T13:58:46.030Z,70.1
2022-12-11T14:00:02.212Z,70.2
2022-12-11T14:01:18.246Z,70.2
2022-12-11T14:02:34.588Z,70.1
2022-12-11T14:03:50.781Z,70.2
2022-12-11T14:05:06.974Z,70.1
2022-12-11T14:06:23.161Z,70.2
2022-12-11T14:07:39.168Z,70.3
2022-12-11T14:08:55.363Z,70.2
2022-12-11T14:10:11.719Z,70.2
2022-12-11T14:11:27.903Z,70.3
2022-12-11T14:12:44.095Z,70.4
2022-12-11T14:14:00.282Z,70.2
2022-12-11T14:15:15.306Z,70.4
2022-12-11T14:16:31.675Z,70.2
2022-12-11T14:17:47.861Z,70.4
2022-12-11T14:19:03.877Z,70.4
2022-12-11T14:20:20.231Z,70.2
2022-12-11T14:21:36.248Z,70.4
2022-12-11T14:22:52.620Z,70.3
2022-12-11T14:24:08.617Z,70.4
2022-12-11T14:25:24.989Z,70.3
2022-12-11T14:26:41.180Z,70.3
2022-12-11T14:27:57.173Z,70.4
2022-12-11T14:29:13.541Z,70.4
2022-12-11T14:30:29.742Z,70.4
2022-12-11T14:31:44.755Z,70.4
2022-12-11T14:33:00.939Z,70.5
2022-12-11T14:34:17.129Z,70.5
2022-12-11T14:35:33.506Z,70.4
2022-12-11T14:36:49.691Z,70.4
2022-12-11T14:38:05.885Z,70.5
2022-12-11T14:39:22.070Z,70.5
2022-12-11T14:40:38.242Z,70.5
2022-12-11T14:41:54.254Z,70.5
2022-12-11T14:43:10.435Z,70.5
2022-12-11T14:44:26.805Z,70.7
2022-12-11T14:45:42.826Z,70.7
2022-12-11T14:46:59.000Z,70.7
2022-12-11T14:48:14.385Z,70.7
2022-12-11T14:49:30.388Z,70.7
2022-12-11T14:50:46.762Z,70.7
2022-12-11T14:52:02.960Z,70.8
2022-12-11T14:53:18.957Z,70.5
2022-12-11T14:54:35.146Z,70.5
2022-12-11T14:55:51.507Z,70.3
2022-12-11T14:57:07.700Z,70.3
2022-12-11T14:58:23.899Z,70.3
2022-12-11T14:59:40.073Z,70.2
2022-12-11T15:00:56.275Z,70.3
2022-12-11T15:02:12.275Z,70
2022-12-11T15:03:28.632Z,69.9
2022-12-11T15:04:43.654Z,70
2022-12-11T15:06:00.041Z,70.1
2022-12-11T15:07:16.041Z,70.2
2022-12-11T15:08:32.401Z,70.3
2022-12-11T15:09:48.404Z,70.3
2022-12-11T15:11:04.786Z,70.3
2022-12-11T15:12:20.967Z,70.3
2022-12-11T15:13:37.162Z,70.3
2022-12-11T15:14:53.150Z,70.3
2022-12-11T15:16:09.537Z,70.3
2022-12-11T15:17:25.521Z,70.3
2022-12-11T15:18:41.897Z,70.2
2022-12-11T15:19:58.086Z,70.3
2022-12-11T15:21:13.115Z,70.3
2022-12-11T15:22:29.482Z,70.3
2022-12-11T15:23:45.490Z,70.2
2022-12-11T15:25:01.676Z,70.2
2022-12-11T15:26:18.054Z,70.3
2022-12-11T15:27:34.000Z,70.1
2022-12-11T15:28:50.422Z,70.3
2022-12-11T15:30:06.617Z,70.4
2022-12-11T15:31:22.796Z,70.2
2022-12-11T15:32:38.797Z,70.2
2022-12-11T15:33:55.172Z,70.2
2022-12-11T15:35:11.365Z,70.2
2022-12-11T15:36:27.349Z,70.1
2022-12-11T15:37:42.754Z,70.3
2022-12-11T15:38:58.934Z,70.4
2022-12-11T15:40:14.929Z,70.3
2022-12-11T15:41:31.311Z,70.3
2022-12-11T15:42:47.297Z,70.4
2022-12-11T15:44:03.687Z,70.4
2022-12-11T15:45:19.882Z,70.4
2022-12-11T15:46:36.063Z,70.5
2022-12-11T15:47:52.065Z,70.4
2022-12-11T15:49:08.249Z,70.5
2022-12-11T15:50:24.619Z,70.5
2022-12-11T15:51:40.824Z,70.5
2022-12-11T15:52:56.999Z,70.3
2022-12-11T15:54:12.206Z,70.4
2022-12-11T15:55:28.199Z,70.7
2022-12-11T15:56:44.592Z,70.5
2022-12-11T15:58:00.569Z,70.5
2022-12-11T15:59:16.952Z,70.7
2022-12-11T16:00:33.154Z,70.5
2022-12-11T16:01:49.142Z,70.5
2022-12-11T16:03:05.338Z,70.5
2022-12-11T16:04:21.712Z,70.7
2022-12-11T16:05:37.907Z,70.5
2022-12-11T16:06:54.095Z,70.5
2022-12-11T16:08:10.093Z,70.5
2022-12-11T16:09:26.478Z,70.4
2022-12-11T16:10:41.473Z,70.5
2022-12-11T16:11:57.861Z,70.7
2022-12-11T16:13:14.064Z,70.5
2022-12-11T16:14:30.034Z,70.5
2022-12-11T16:15:46.227Z,70.8
2022-12-11T16:17:02.628Z,70.8
2022-12-11T16:18:17.636Z,70.7
2022-12-11T16:19:34.020Z,70.8
2022-12-11T16:20:50.215Z,70.8
2022-12-11T16:22:06.395Z,70.8
2022-12-11T16:23:22.383Z,70.8
2022-12-11T16:24:38.779Z,70.7
2022-12-11T16:25:54.763Z,70.7
2022-12-11T16:27:10.944Z,70.8
2022-12-11T16:28:27.135Z,70.8
2022-12-11T16:29:43.534Z,70.8
2022-12-11T16:30:59.526Z,70.8
2022-12-11T16:32:15.919Z,71
2022-12-11T16:33:31.900Z,70.8
2022-12-11T16:34:47.308Z,71
2022-12-11T16:36:03.487Z,71
2022-12-11T16:37:19.682Z,71
2022-12-11T16:38:35.883Z,70.8
2022-12-11T16:39:51.856Z,71
2022-12-11T16:41:08.033Z,71
2022-12-11T16:42:24.448Z,70.8
2022-12-11T16:43:40.630Z,71
2022-12-11T16:44:56.808Z,71
2022-12-11T16:46:13.002Z,70.8
2022-12-11T16:47:29.202Z,71
2022-12-11T16:48:45.186Z,70.8
2022-12-11T16:50:01.579Z,70.8
2022-12-11T16:51:16.782Z,70.8
2022-12-11T16:52:32.975Z,70.8
2022-12-11T16:53:49.155Z,70.8
2022-12-11T16:55:05.351Z,70.8
2022-12-11T16:56:21.333Z,70.8
2022-12-11T16:57:37.731Z,70.8
2022-12-11T16:58:53.695Z,70.8
2022-12-11T17:00:10.107Z,70.8
2022-12-11T17:01:26.296Z,71
2022-12-11T17:02:42.470Z,71